sensor_id;sensor_type;location;lat;lon;timestamp;P1;durP1;ratioP1;P2;durP2;ratioP2
64520;SDS011;50896;46.714;17.322;2024-01-30T00:00:21;47.17;;;23.35;;
64520;SDS011;50896;46.714;17.322;2024-01-30T00:02:48;42.08;;;23.88;;
64520;SDS011;50896;46.714;17.322;2024-01-30T00:05:15;45.13;;;23.67;;
64520;SDS011;50896;46.714;17.322;2024-01-30T00:07:41;45.55;;;23.80;;
64520;SDS011;50896;46.714;17.322;2024-01-30T00:10:08;49.05;;;25.17;;
64520;SDS011;50896;46.714;17.322;2024-01-30T00:12:35;53.42;;;25.40;;
64520;SDS011;50896;46.714;17.322;2024-01-30T00:15:02;49.22;;;26.80;;
64520;SDS011;50896;46.714;17.322;2024-01-30T00:17:31;51.30;;;26.80;;
64520;SDS011;50896;46.714;17.322;2024-01-30T00:19:58;49.85;;;26.42;;
64520;SDS011;50896;46.714;17.322;2024-01-30T00:22:25;47.55;;;25.88;;
64520;SDS011;50896;46.714;17.322;2024-01-30T00:24:52;51.60;;;26.38;;
64520;SDS011;50896;46.714;17.322;2024-01-30T00:27:19;47.25;;;25.63;;
64520;SDS011;50896;46.714;17.322;2024-01-30T00:29:46;51.92;;;27.20;;
64520;SDS011;50896;46.714;17.322;2024-01-30T00:32:13;44.25;;;25.20;;
64520;SDS011;50896;46.714;17.322;2024-01-30T00:34:39;46.38;;;24.15;;
64520;SDS011;50896;46.714;17.322;2024-01-30T00:37:06;42.72;;;23.92;;
64520;SDS011;50896;46.714;17.322;2024-01-30T00:39:33;39.92;;;22.40;;
64520;SDS011;50896;46.714;17.322;2024-01-30T00:42:00;42.97;;;23.02;;
64520;SDS011;50896;46.714;17.322;2024-01-30T00:44:27;40.47;;;23.08;;
64520;SDS011;50896;46.714;17.322;2024-01-30T00:46:54;38.58;;;21.45;;
64520;SDS011;50896;46.714;17.322;2024-01-30T00:49:21;41.70;;;22.00;;
64520;SDS011;50896;46.714;17.322;2024-01-30T00:51:48;35.97;;;19.88;;
64520;SDS011;50896;46.714;17.322;2024-01-30T00:54:15;40.35;;;22.35;;
64520;SDS011;50896;46.714;17.322;2024-01-30T00:56:41;39.10;;;22.00;;
64520;SDS011;50896;46.714;17.322;2024-01-30T00:59:08;37.53;;;21.90;;
64520;SDS011;50896;46.714;17.322;2024-01-30T01:01:35;42.42;;;21.33;;
64520;SDS011;50896;46.714;17.322;2024-01-30T01:04:02;41.60;;;20.70;;
64520;SDS011;50896;46.714;17.322;2024-01-30T01:06:29;37.85;;;20.63;;
64520;SDS011;50896;46.714;17.322;2024-01-30T01:08:56;36.10;;;19.80;;
64520;SDS011;50896;46.714;17.322;2024-01-30T01:11:23;33.25;;;18.88;;
64520;SDS011;50896;46.714;17.322;2024-01-30T01:13:50;35.28;;;19.45;;
64520;SDS011;50896;46.714;17.322;2024-01-30T01:16:17;32.80;;;18.42;;
64520;SDS011;50896;46.714;17.322;2024-01-30T01:18:44;32.65;;;19.25;;
64520;SDS011;50896;46.714;17.322;2024-01-30T01:21:11;35.28;;;19.45;;
64520;SDS011;50896;46.714;17.322;2024-01-30T01:23:37;41.22;;;20.95;;
64520;SDS011;50896;46.714;17.322;2024-01-30T01:26:04;37.97;;;19.45;;
64520;SDS011;50896;46.714;17.322;2024-01-30T01:28:32;35.47;;;18.90;;
64520;SDS011;50896;46.714;17.322;2024-01-30T01:30:59;41.28;;;21.13;;
64520;SDS011;50896;46.714;17.322;2024-01-30T01:33:32;33.97;;;19.65;;
64520;SDS011;50896;46.714;17.322;2024-01-30T01:35:59;37.33;;;19.42;;
64520;SDS011;50896;46.714;17.322;2024-01-30T01:38:29;39.53;;;19.52;;
64520;SDS011;50896;46.714;17.322;2024-01-30T01:40:56;37.58;;;20.48;;
64520;SDS011;50896;46.714;17.322;2024-01-30T01:43:22;34.38;;;18.00;;
64520;SDS011;50896;46.714;17.322;2024-01-30T01:45:50;39.15;;;19.42;;
64520;SDS011;50896;46.714;17.322;2024-01-30T01:48:17;31.00;;;18.30;;
64520;SDS011;50896;46.714;17.322;2024-01-30T01:50:44;32.17;;;18.23;;
64520;SDS011;50896;46.714;17.322;2024-01-30T01:53:11;44.95;;;21.10;;
64520;SDS011;50896;46.714;17.322;2024-01-30T01:55:39;61.45;;;26.23;;
64520;SDS011;50896;46.714;17.322;2024-01-30T01:58:06;59.75;;;26.55;;
64520;SDS011;50896;46.714;17.322;2024-01-30T02:00:35;57.42;;;26.67;;
64520;SDS011;50896;46.714;17.322;2024-01-30T02:03:06;48.95;;;24.05;;
64520;SDS011;50896;46.714;17.322;2024-01-30T02:05:34;39.50;;;21.50;;
64520;SDS011;50896;46.714;17.322;2024-01-30T02:08:01;38.55;;;18.60;;
64520;SDS011;50896;46.714;17.322;2024-01-30T02:10:30;31.58;;;18.25;;
64520;SDS011;50896;46.714;17.322;2024-01-30T02:12:56;34.20;;;18.13;;
64520;SDS011;50896;46.714;17.322;2024-01-30T02:15:23;34.97;;;19.40;;
64520;SDS011;50896;46.714;17.322;2024-01-30T02:17:51;34.25;;;18.42;;
64520;SDS011;50896;46.714;17.322;2024-01-30T02:20:18;33.33;;;17.70;;
64520;SDS011;50896;46.714;17.322;2024-01-30T02:22:45;29.75;;;17.17;;
64520;SDS011;50896;46.714;17.322;2024-01-30T02:25:13;31.70;;;17.25;;
64520;SDS011;50896;46.714;17.322;2024-01-30T02:27:40;34.17;;;17.63;;
64520;SDS011;50896;46.714;17.322;2024-01-30T02:30:07;30.10;;;17.13;;
64520;SDS011;50896;46.714;17.322;2024-01-30T02:32:34;29.88;;;16.33;;
64520;SDS011;50896;46.714;17.322;2024-01-30T02:35:01;31.73;;;16.80;;
64520;SDS011;50896;46.714;17.322;2024-01-30T02:37:28;34.45;;;17.45;;
64520;SDS011;50896;46.714;17.322;2024-01-30T02:39:55;36.53;;;18.33;;
64520;SDS011;50896;46.714;17.322;2024-01-30T02:42:22;30.67;;;17.58;;
64520;SDS011;50896;46.714;17.322;2024-01-30T02:44:49;30.52;;;16.92;;
64520;SDS011;50896;46.714;17.322;2024-01-30T02:47:16;36.00;;;17.65;;
64520;SDS011;50896;46.714;17.322;2024-01-30T02:49:43;32.60;;;17.48;;
64520;SDS011;50896;46.714;17.322;2024-01-30T02:52:10;31.75;;;17.45;;
64520;SDS011;50896;46.714;17.322;2024-01-30T02:54:37;32.53;;;17.15;;
64520;SDS011;50896;46.714;17.322;2024-01-30T02:57:04;35.13;;;19.23;;
64520;SDS011;50896;46.714;17.322;2024-01-30T02:59:30;31.77;;;17.33;;
64520;SDS011;50896;46.714;17.322;2024-01-30T03:01:59;32.08;;;17.83;;
64520;SDS011;50896;46.714;17.322;2024-01-30T03:04:27;31.83;;;17.58;;
64520;SDS011;50896;46.714;17.322;2024-01-30T03:06:54;32.33;;;17.73;;
64520;SDS011;50896;46.714;17.322;2024-01-30T03:09:21;34.85;;;17.80;;
64520;SDS011;50896;46.714;17.322;2024-01-30T03:11:47;30.00;;;17.27;;
64520;SDS011;50896;46.714;17.322;2024-01-30T03:14:14;30.33;;;17.05;;
64520;SDS011;50896;46.714;17.322;2024-01-30T03:16:41;35.05;;;16.80;;
64520;SDS011;50896;46.714;17.322;2024-01-30T03:19:08;31.70;;;16.35;;
64520;SDS011;50896;46.714;17.322;2024-01-30T03:21:36;35.83;;;17.05;;
64520;SDS011;50896;46.714;17.322;2024-01-30T03:24:03;34.53;;;17.65;;
64520;SDS011;50896;46.714;17.322;2024-01-30T03:26:30;29.83;;;16.17;;
64520;SDS011;50896;46.714;17.322;2024-01-30T03:28:57;33.97;;;17.50;;
64520;SDS011;50896;46.714;17.322;2024-01-30T03:31:23;28.35;;;16.70;;
64520;SDS011;50896;46.714;17.322;2024-01-30T03:33:51;35.78;;;17.30;;
64520;SDS011;50896;46.714;17.322;2024-01-30T03:36:18;28.63;;;16.70;;
64520;SDS011;50896;46.714;17.322;2024-01-30T03:38:45;33.78;;;16.48;;
64520;SDS011;50896;46.714;17.322;2024-01-30T03:41:11;32.47;;;17.00;;
64520;SDS011;50896;46.714;17.322;2024-01-30T03:43:38;33.45;;;16.77;;
64520;SDS011;50896;46.714;17.322;2024-01-30T03:46:05;29.80;;;15.90;;
64520;SDS011;50896;46.714;17.322;2024-01-30T03:48:32;30.98;;;16.98;;
64520;SDS011;50896;46.714;17.322;2024-01-30T03:50:59;29.15;;;15.93;;
64520;SDS011;50896;46.714;17.322;2024-01-30T03:53:26;30.98;;;16.90;;
64520;SDS011;50896;46.714;17.322;2024-01-30T03:55:52;32.25;;;17.02;;
64520;SDS011;50896;46.714;17.322;2024-01-30T03:58:19;36.20;;;17.08;;
64520;SDS011;50896;46.714;17.322;2024-01-30T04:00:46;28.38;;;14.55;;
64520;SDS011;50896;46.714;17.322;2024-01-30T04:03:16;29.85;;;16.38;;
64520;SDS011;50896;46.714;17.322;2024-01-30T04:05:43;26.65;;;15.38;;
64520;SDS011;50896;46.714;17.322;2024-01-30T04:08:11;31.13;;;16.55;;
64520;SDS011;50896;46.714;17.322;2024-01-30T04:10:38;29.88;;;15.60;;
64520;SDS011;50896;46.714;17.322;2024-01-30T04:13:05;30.67;;;15.65;;
64520;SDS011;50896;46.714;17.322;2024-01-30T04:15:37;31.40;;;15.32;;
64520;SDS011;50896;46.714;17.322;2024-01-30T04:18:04;28.38;;;14.23;;
64520;SDS011;50896;46.714;17.322;2024-01-30T04:20:31;29.55;;;14.70;;
64520;SDS011;50896;46.714;17.322;2024-01-30T04:22:58;30.50;;;15.45;;
64520;SDS011;50896;46.714;17.322;2024-01-30T04:25:25;29.83;;;15.20;;
64520;SDS011;50896;46.714;17.322;2024-01-30T04:27:52;30.25;;;15.50;;
64520;SDS011;50896;46.714;17.322;2024-01-30T04:30:19;28.88;;;14.70;;
64520;SDS011;50896;46.714;17.322;2024-01-30T04:32:47;29.73;;;15.98;;
64520;SDS011;50896;46.714;17.322;2024-01-30T04:35:13;32.85;;;15.98;;
64520;SDS011;50896;46.714;17.322;2024-01-30T04:37:41;30.85;;;16.20;;
64520;SDS011;50896;46.714;17.322;2024-01-30T04:40:08;29.85;;;14.95;;
64520;SDS011;50896;46.714;17.322;2024-01-30T04:42:36;30.83;;;14.57;;
64520;SDS011;50896;46.714;17.322;2024-01-30T04:45:03;24.05;;;13.05;;
64520;SDS011;50896;46.714;17.322;2024-01-30T04:47:30;27.95;;;14.30;;
64520;SDS011;50896;46.714;17.322;2024-01-30T04:49:57;26.85;;;13.63;;
64520;SDS011;50896;46.714;17.322;2024-01-30T04:52:24;29.23;;;14.10;;
64520;SDS011;50896;46.714;17.322;2024-01-30T04:54:50;27.38;;;14.60;;
64520;SDS011;50896;46.714;17.322;2024-01-30T04:57:17;25.80;;;13.20;;
64520;SDS011;50896;46.714;17.322;2024-01-30T04:59:44;28.27;;;13.15;;
64520;SDS011;50896;46.714;17.322;2024-01-30T05:02:11;26.55;;;12.82;;
64520;SDS011;50896;46.714;17.322;2024-01-30T05:04:38;24.70;;;11.70;;
64520;SDS011;50896;46.714;17.322;2024-01-30T05:07:05;24.45;;;12.90;;
64520;SDS011;50896;46.714;17.322;2024-01-30T05:09:32;25.80;;;11.77;;
64520;SDS011;50896;46.714;17.322;2024-01-30T05:11:59;21.98;;;12.18;;
64520;SDS011;50896;46.714;17.322;2024-01-30T05:14:26;26.88;;;12.50;;
64520;SDS011;50896;46.714;17.322;2024-01-30T05:16:53;27.00;;;13.05;;
64520;SDS011;50896;46.714;17.322;2024-01-30T05:19:20;26.25;;;13.20;;
64520;SDS011;50896;46.714;17.322;2024-01-30T05:21:49;29.00;;;13.88;;
64520;SDS011;50896;46.714;17.322;2024-01-30T05:24:16;28.25;;;13.85;;
64520;SDS011;50896;46.714;17.322;2024-01-30T05:26:46;27.73;;;12.68;;
64520;SDS011;50896;46.714;17.322;2024-01-30T05:29:14;27.15;;;12.82;;
64520;SDS011;50896;46.714;17.322;2024-01-30T05:31:41;26.77;;;13.77;;
64520;SDS011;50896;46.714;17.322;2024-01-30T05:34:09;29.50;;;13.30;;
64520;SDS011;50896;46.714;17.322;2024-01-30T05:36:36;32.08;;;14.38;;
64520;SDS011;50896;46.714;17.322;2024-01-30T05:39:02;30.85;;;13.35;;
64520;SDS011;50896;46.714;17.322;2024-01-30T05:41:33;27.75;;;12.98;;
64520;SDS011;50896;46.714;17.322;2024-01-30T05:44:00;24.95;;;12.55;;
64520;SDS011;50896;46.714;17.322;2024-01-30T05:46:27;24.17;;;12.82;;
64520;SDS011;50896;46.714;17.322;2024-01-30T05:48:54;23.45;;;11.88;;
64520;SDS011;50896;46.714;17.322;2024-01-30T05:51:21;26.35;;;12.68;;
64520;SDS011;50896;46.714;17.322;2024-01-30T05:53:47;28.83;;;13.15;;
64520;SDS011;50896;46.714;17.322;2024-01-30T05:56:14;30.00;;;13.65;;
64520;SDS011;50896;46.714;17.322;2024-01-30T05:58:42;31.05;;;13.65;;
64520;SDS011;50896;46.714;17.322;2024-01-30T06:01:09;27.23;;;13.52;;
64520;SDS011;50896;46.714;17.322;2024-01-30T06:03:36;25.98;;;13.93;;
64520;SDS011;50896;46.714;17.322;2024-01-30T06:06:03;28.38;;;14.65;;
64520;SDS011;50896;46.714;17.322;2024-01-30T06:08:30;30.88;;;15.18;;
64520;SDS011;50896;46.714;17.322;2024-01-30T06:10:57;27.70;;;14.52;;
64520;SDS011;50896;46.714;17.322;2024-01-30T06:13:24;31.42;;;15.70;;
64520;SDS011;50896;46.714;17.322;2024-01-30T06:15:51;32.65;;;17.50;;
64520;SDS011;50896;46.714;17.322;2024-01-30T06:18:17;38.75;;;16.80;;
64520;SDS011;50896;46.714;17.322;2024-01-30T06:20:44;37.42;;;17.27;;
64520;SDS011;50896;46.714;17.322;2024-01-30T06:23:11;33.03;;;16.88;;
64520;SDS011;50896;46.714;17.322;2024-01-30T06:25:39;31.77;;;15.63;;
64520;SDS011;50896;46.714;17.322;2024-01-30T06:28:06;29.98;;;14.48;;
64520;SDS011;50896;46.714;17.322;2024-01-30T06:30:33;32.13;;;14.75;;
64520;SDS011;50896;46.714;17.322;2024-01-30T06:33:00;31.38;;;14.60;;
64520;SDS011;50896;46.714;17.322;2024-01-30T06:35:27;32.13;;;15.52;;
64520;SDS011;50896;46.714;17.322;2024-01-30T06:37:55;28.55;;;15.05;;
64520;SDS011;50896;46.714;17.322;2024-01-30T06:40:22;31.92;;;14.82;;
64520;SDS011;50896;46.714;17.322;2024-01-30T06:42:49;31.27;;;15.70;;
64520;SDS011;50896;46.714;17.322;2024-01-30T06:45:16;33.03;;;16.13;;
64520;SDS011;50896;46.714;17.322;2024-01-30T06:47:43;30.77;;;15.75;;
64520;SDS011;50896;46.714;17.322;2024-01-30T06:50:10;30.33;;;15.40;;
64520;SDS011;50896;46.714;17.322;2024-01-30T06:52:37;29.20;;;14.98;;
64520;SDS011;50896;46.714;17.322;2024-01-30T06:55:04;28.13;;;14.60;;
64520;SDS011;50896;46.714;17.322;2024-01-30T06:57:31;26.63;;;14.48;;
64520;SDS011;50896;46.714;17.322;2024-01-30T06:59:58;28.55;;;16.10;;
64520;SDS011;50896;46.714;17.322;2024-01-30T07:02:25;33.00;;;16.50;;
64520;SDS011;50896;46.714;17.322;2024-01-30T07:04:52;30.80;;;15.52;;
64520;SDS011;50896;46.714;17.322;2024-01-30T07:07:19;29.90;;;15.05;;
64520;SDS011;50896;46.714;17.322;2024-01-30T07:09:46;29.58;;;15.63;;
64520;SDS011;50896;46.714;17.322;2024-01-30T07:12:14;27.42;;;15.82;;
64520;SDS011;50896;46.714;17.322;2024-01-30T07:14:41;31.33;;;16.25;;
64520;SDS011;50896;46.714;17.322;2024-01-30T07:17:08;40.55;;;17.88;;
64520;SDS011;50896;46.714;17.322;2024-01-30T07:19:35;30.77;;;16.83;;
64520;SDS011;50896;46.714;17.322;2024-01-30T07:22:02;35.92;;;16.50;;
64520;SDS011;50896;46.714;17.322;2024-01-30T07:24:28;31.30;;;16.85;;
64520;SDS011;50896;46.714;17.322;2024-01-30T07:26:56;34.55;;;15.60;;
64520;SDS011;50896;46.714;17.322;2024-01-30T07:29:24;32.08;;;16.25;;
64520;SDS011;50896;46.714;17.322;2024-01-30T07:31:51;31.75;;;16.00;;
64520;SDS011;50896;46.714;17.322;2024-01-30T07:34:17;33.45;;;14.95;;
64520;SDS011;50896;46.714;17.322;2024-01-30T07:36:44;28.60;;;15.63;;
64520;SDS011;50896;46.714;17.322;2024-01-30T07:39:12;32.08;;;15.80;;
64520;SDS011;50896;46.714;17.322;2024-01-30T07:41:39;29.55;;;15.73;;
64520;SDS011;50896;46.714;17.322;2024-01-30T07:44:06;30.33;;;15.70;;
64520;SDS011;50896;46.714;17.322;2024-01-30T07:46:33;33.42;;;16.05;;
64520;SDS011;50896;46.714;17.322;2024-01-30T07:49:00;30.90;;;15.73;;
64520;SDS011;50896;46.714;17.322;2024-01-30T07:51:28;28.30;;;15.32;;
64520;SDS011;50896;46.714;17.322;2024-01-30T07:53:59;25.85;;;14.20;;
64520;SDS011;50896;46.714;17.322;2024-01-30T07:56:26;31.10;;;17.08;;
64520;SDS011;50896;46.714;17.322;2024-01-30T07:58:53;32.60;;;16.45;;
64520;SDS011;50896;46.714;17.322;2024-01-30T08:01:20;33.22;;;16.90;;
64520;SDS011;50896;46.714;17.322;2024-01-30T08:03:47;37.65;;;18.48;;
64520;SDS011;50896;46.714;17.322;2024-01-30T08:06:14;30.83;;;16.17;;
64520;SDS011;50896;46.714;17.322;2024-01-30T08:08:41;34.10;;;16.52;;
64520;SDS011;50896;46.714;17.322;2024-01-30T08:11:07;31.02;;;16.92;;
64520;SDS011;50896;46.714;17.322;2024-01-30T08:13:34;35.13;;;16.05;;
64520;SDS011;50896;46.714;17.322;2024-01-30T08:16:01;31.80;;;16.77;;
64520;SDS011;50896;46.714;17.322;2024-01-30T08:18:28;32.40;;;17.38;;
64520;SDS011;50896;46.714;17.322;2024-01-30T08:20:55;35.70;;;18.17;;
64520;SDS011;50896;46.714;17.322;2024-01-30T08:23:22;34.15;;;17.88;;
64520;SDS011;50896;46.714;17.322;2024-01-30T08:25:48;34.80;;;17.50;;
64520;SDS011;50896;46.714;17.322;2024-01-30T08:28:15;34.30;;;17.15;;
64520;SDS011;50896;46.714;17.322;2024-01-30T08:30:45;31.90;;;17.48;;
64520;SDS011;50896;46.714;17.322;2024-01-30T08:33:12;34.63;;;16.75;;
64520;SDS011;50896;46.714;17.322;2024-01-30T08:35:39;33.47;;;16.55;;
64520;SDS011;50896;46.714;17.322;2024-01-30T08:38:06;29.77;;;17.17;;
64520;SDS011;50896;46.714;17.322;2024-01-30T08:40:33;35.53;;;17.05;;
64520;SDS011;50896;46.714;17.322;2024-01-30T08:43:00;35.50;;;18.17;;
64520;SDS011;50896;46.714;17.322;2024-01-30T08:45:27;35.95;;;17.95;;
64520;SDS011;50896;46.714;17.322;2024-01-30T08:47:54;33.88;;;17.50;;
64520;SDS011;50896;46.714;17.322;2024-01-30T08:50:20;30.77;;;17.05;;
64520;SDS011;50896;46.714;17.322;2024-01-30T08:52:48;34.88;;;18.17;;
64520;SDS011;50896;46.714;17.322;2024-01-30T08:55:16;36.08;;;18.20;;
64520;SDS011;50896;46.714;17.322;2024-01-30T08:57:42;31.38;;;17.08;;
64520;SDS011;50896;46.714;17.322;2024-01-30T09:00:09;29.02;;;15.85;;
64520;SDS011;50896;46.714;17.322;2024-01-30T09:02:37;30.58;;;16.65;;
64520;SDS011;50896;46.714;17.322;2024-01-30T09:05:04;29.67;;;17.42;;
64520;SDS011;50896;46.714;17.322;2024-01-30T09:07:31;30.92;;;18.48;;
64520;SDS011;50896;46.714;17.322;2024-01-30T09:09:58;34.38;;;18.83;;
64520;SDS011;50896;46.714;17.322;2024-01-30T09:12:25;33.47;;;16.92;;
64520;SDS011;50896;46.714;17.322;2024-01-30T09:14:52;35.15;;;17.77;;
64520;SDS011;50896;46.714;17.322;2024-01-30T09:17:19;31.73;;;18.45;;
64520;SDS011;50896;46.714;17.322;2024-01-30T09:19:46;28.10;;;17.17;;
64520;SDS011;50896;46.714;17.322;2024-01-30T09:22:13;29.75;;;18.30;;
64520;SDS011;50896;46.714;17.322;2024-01-30T09:24:41;32.08;;;16.35;;
64520;SDS011;50896;46.714;17.322;2024-01-30T09:27:07;33.47;;;18.00;;
64520;SDS011;50896;46.714;17.322;2024-01-30T09:29:34;28.73;;;15.40;;
64520;SDS011;50896;46.714;17.322;2024-01-30T09:32:03;31.88;;;16.83;;
64520;SDS011;50896;46.714;17.322;2024-01-30T09:34:31;25.15;;;14.50;;
64520;SDS011;50896;46.714;17.322;2024-01-30T09:36:58;30.60;;;16.40;;
64520;SDS011;50896;46.714;17.322;2024-01-30T09:39:26;30.17;;;15.88;;
64520;SDS011;50896;46.714;17.322;2024-01-30T09:44:55;27.75;;;16.10;;
64520;SDS011;50896;46.714;17.322;2024-01-30T09:47:22;31.67;;;15.77;;
64520;SDS011;50896;46.714;17.322;2024-01-30T09:49:50;29.77;;;16.17;;
64520;SDS011;50896;46.714;17.322;2024-01-30T09:52:18;27.20;;;14.90;;
64520;SDS011;50896;46.714;17.322;2024-01-30T09:54:45;28.80;;;16.15;;
64520;SDS011;50896;46.714;17.322;2024-01-30T09:57:12;28.27;;;15.43;;
64520;SDS011;50896;46.714;17.322;2024-01-30T09:59:39;28.00;;;14.85;;
64520;SDS011;50896;46.714;17.322;2024-01-30T10:02:06;29.08;;;16.20;;
64520;SDS011;50896;46.714;17.322;2024-01-30T10:04:33;29.25;;;16.52;;
64520;SDS011;50896;46.714;17.322;2024-01-30T10:07:02;28.02;;;16.48;;
64520;SDS011;50896;46.714;17.322;2024-01-30T10:09:31;34.10;;;19.30;;
64520;SDS011;50896;46.714;17.322;2024-01-30T10:11:59;27.85;;;15.80;;
64520;SDS011;50896;46.714;17.322;2024-01-30T10:14:26;28.75;;;14.93;;
64520;SDS011;50896;46.714;17.322;2024-01-30T10:16:52;29.88;;;15.45;;
64520;SDS011;50896;46.714;17.322;2024-01-30T10:19:19;28.55;;;14.38;;
64520;SDS011;50896;46.714;17.322;2024-01-30T10:21:46;23.67;;;14.13;;
64520;SDS011;50896;46.714;17.322;2024-01-30T10:24:13;26.73;;;14.02;;
64520;SDS011;50896;46.714;17.322;2024-01-30T10:26:43;24.95;;;15.05;;
64520;SDS011;50896;46.714;17.322;2024-01-30T10:29:10;32.10;;;15.63;;
64520;SDS011;50896;46.714;17.322;2024-01-30T10:31:37;27.73;;;15.52;;
64520;SDS011;50896;46.714;17.322;2024-01-30T10:34:04;25.65;;;14.90;;
64520;SDS011;50896;46.714;17.322;2024-01-30T10:36:45;29.98;;;15.60;;
64520;SDS011;50896;46.714;17.322;2024-01-30T10:39:14;29.25;;;14.90;;
64520;SDS011;50896;46.714;17.322;2024-01-30T10:41:43;28.42;;;14.65;;
64520;SDS011;50896;46.714;17.322;2024-01-30T10:44:11;23.48;;;13.88;;
64520;SDS011;50896;46.714;17.322;2024-01-30T10:46:38;28.60;;;16.05;;
64520;SDS011;50896;46.714;17.322;2024-01-30T10:49:08;29.10;;;16.23;;
64520;SDS011;50896;46.714;17.322;2024-01-30T10:51:36;32.08;;;17.42;;
64520;SDS011;50896;46.714;17.322;2024-01-30T10:54:04;34.38;;;21.25;;
64520;SDS011;50896;46.714;17.322;2024-01-30T10:56:32;28.35;;;16.33;;
64520;SDS011;50896;46.714;17.322;2024-01-30T10:59:01;26.95;;;15.45;;
64520;SDS011;50896;46.714;17.322;2024-01-30T11:01:28;31.90;;;15.38;;
64520;SDS011;50896;46.714;17.322;2024-01-30T11:03:55;28.83;;;16.05;;
64520;SDS011;50896;46.714;17.322;2024-01-30T11:06:27;29.05;;;15.20;;
64520;SDS011;50896;46.714;17.322;2024-01-30T11:11:30;27.60;;;14.63;;
64520;SDS011;50896;46.714;17.322;2024-01-30T11:14:00;29.85;;;15.38;;
64520;SDS011;50896;46.714;17.322;2024-01-30T11:16:30;25.95;;;14.18;;
64520;SDS011;50896;46.714;17.322;2024-01-30T11:19:00;30.13;;;15.65;;
64520;SDS011;50896;46.714;17.322;2024-01-30T11:21:29;25.67;;;15.05;;
64520;SDS011;50896;46.714;17.322;2024-01-30T11:23:55;27.25;;;15.93;;
64520;SDS011;50896;46.714;17.322;2024-01-30T11:26:30;26.63;;;14.90;;
64520;SDS011;50896;46.714;17.322;2024-01-30T11:28:58;28.42;;;15.45;;
64520;SDS011;50896;46.714;17.322;2024-01-30T11:31:25;28.58;;;14.10;;
64520;SDS011;50896;46.714;17.322;2024-01-30T11:33:52;27.27;;;14.70;;
64520;SDS011;50896;46.714;17.322;2024-01-30T11:36:21;27.98;;;14.90;;
64520;SDS011;50896;46.714;17.322;2024-01-30T11:38:53;27.67;;;14.75;;
64520;SDS011;50896;46.714;17.322;2024-01-30T11:41:20;26.45;;;14.40;;
64520;SDS011;50896;46.714;17.322;2024-01-30T11:43:53;25.80;;;13.37;;
64520;SDS011;50896;46.714;17.322;2024-01-30T11:46:20;25.23;;;14.93;;
64520;SDS011;50896;46.714;17.322;2024-01-30T11:48:48;26.48;;;15.05;;
64520;SDS011;50896;46.714;17.322;2024-01-30T11:51:15;23.75;;;13.32;;
64520;SDS011;50896;46.714;17.322;2024-01-30T11:53:49;25.50;;;13.95;;
64520;SDS011;50896;46.714;17.322;2024-01-30T11:56:16;21.58;;;12.60;;
64520;SDS011;50896;46.714;17.322;2024-01-30T11:58:43;21.67;;;13.52;;
64520;SDS011;50896;46.714;17.322;2024-01-30T12:01:10;24.02;;;12.55;;
64520;SDS011;50896;46.714;17.322;2024-01-30T12:03:38;21.50;;;12.88;;
64520;SDS011;50896;46.714;17.322;2024-01-30T12:06:05;25.52;;;13.35;;
64520;SDS011;50896;46.714;17.322;2024-01-30T12:08:33;21.70;;;13.30;;
64520;SDS011;50896;46.714;17.322;2024-01-30T12:11:00;20.45;;;12.80;;
64520;SDS011;50896;46.714;17.322;2024-01-30T12:13:31;26.75;;;13.65;;
64520;SDS011;50896;46.714;17.322;2024-01-30T12:15:59;25.13;;;13.57;;
64520;SDS011;50896;46.714;17.322;2024-01-30T12:18:27;22.08;;;12.85;;
64520;SDS011;50896;46.714;17.322;2024-01-30T12:20:58;22.85;;;12.40;;
64520;SDS011;50896;46.714;17.322;2024-01-30T12:23:29;22.58;;;13.05;;
64520;SDS011;50896;46.714;17.322;2024-01-30T12:25:56;22.13;;;12.43;;
64520;SDS011;50896;46.714;17.322;2024-01-30T12:28:23;26.88;;;13.00;;
64520;SDS011;50896;46.714;17.322;2024-01-30T12:30:54;23.25;;;13.93;;
64520;SDS011;50896;46.714;17.322;2024-01-30T12:33:24;21.52;;;12.43;;
64520;SDS011;50896;46.714;17.322;2024-01-30T12:35:55;27.17;;;18.08;;
64520;SDS011;50896;46.714;17.322;2024-01-30T12:38:29;24.90;;;16.02;;
64520;SDS011;50896;46.714;17.322;2024-01-30T12:40:56;22.40;;;13.00;;
64520;SDS011;50896;46.714;17.322;2024-01-30T12:43:26;23.05;;;13.50;;
64520;SDS011;50896;46.714;17.322;2024-01-30T12:46:04;15.98;;;9.13;;
64520;SDS011;50896;46.714;17.322;2024-01-30T12:48:32;17.20;;;8.68;;
64520;SDS011;50896;46.714;17.322;2024-01-30T12:50:59;15.05;;;7.70;;
64520;SDS011;50896;46.714;17.322;2024-01-30T12:53:28;14.93;;;7.85;;
64520;SDS011;50896;46.714;17.322;2024-01-30T12:55:55;13.30;;;8.15;;
64520;SDS011;50896;46.714;17.322;2024-01-30T12:58:22;14.60;;;8.55;;
64520;SDS011;50896;46.714;17.322;2024-01-30T13:00:48;16.85;;;7.78;;
64520;SDS011;50896;46.714;17.322;2024-01-30T13:03:15;15.18;;;7.38;;
64520;SDS011;50896;46.714;17.322;2024-01-30T13:05:42;12.80;;;7.55;;
64520;SDS011;50896;46.714;17.322;2024-01-30T13:08:09;15.00;;;7.72;;
64520;SDS011;50896;46.714;17.322;2024-01-30T13:10:36;12.25;;;7.13;;
64520;SDS011;50896;46.714;17.322;2024-01-30T13:13:03;12.73;;;6.82;;
64520;SDS011;50896;46.714;17.322;2024-01-30T13:15:33;12.70;;;6.68;;
64520;SDS011;50896;46.714;17.322;2024-01-30T13:18:00;12.20;;;6.68;;
64520;SDS011;50896;46.714;17.322;2024-01-30T13:20:26;11.73;;;6.57;;
64520;SDS011;50896;46.714;17.322;2024-01-30T13:22:53;10.30;;;6.57;;
64520;SDS011;50896;46.714;17.322;2024-01-30T13:25:20;14.57;;;7.07;;
64520;SDS011;50896;46.714;17.322;2024-01-30T13:27:47;12.93;;;7.10;;
64520;SDS011;50896;46.714;17.322;2024-01-30T13:30:14;12.18;;;6.72;;
64520;SDS011;50896;46.714;17.322;2024-01-30T13:32:41;14.80;;;7.68;;
64520;SDS011;50896;46.714;17.322;2024-01-30T13:35:10;11.40;;;6.40;;
64520;SDS011;50896;46.714;17.322;2024-01-30T13:37:37;12.93;;;6.40;;
64520;SDS011;50896;46.714;17.322;2024-01-30T13:40:05;11.05;;;6.70;;
64520;SDS011;50896;46.714;17.322;2024-01-30T13:42:39;13.25;;;6.95;;
64520;SDS011;50896;46.714;17.322;2024-01-30T13:45:06;13.75;;;7.03;;
64520;SDS011;50896;46.714;17.322;2024-01-30T13:47:36;11.98;;;6.43;;
64520;SDS011;50896;46.714;17.322;2024-01-30T13:50:04;9.63;;;6.07;;
64520;SDS011;50896;46.714;17.322;2024-01-30T13:52:33;12.52;;;6.45;;
64520;SDS011;50896;46.714;17.322;2024-01-30T13:55:10;14.52;;;6.95;;
64520;SDS011;50896;46.714;17.322;2024-01-30T13:57:37;13.52;;;7.55;;
64520;SDS011;50896;46.714;17.322;2024-01-30T14:00:05;13.48;;;7.07;;
64520;SDS011;50896;46.714;17.322;2024-01-30T14:02:38;10.25;;;6.15;;
64520;SDS011;50896;46.714;17.322;2024-01-30T14:05:05;9.27;;;5.47;;
64520;SDS011;50896;46.714;17.322;2024-01-30T14:07:33;12.15;;;6.50;;
64520;SDS011;50896;46.714;17.322;2024-01-30T14:10:00;12.15;;;6.57;;
64520;SDS011;50896;46.714;17.322;2024-01-30T14:12:30;9.27;;;5.80;;
64520;SDS011;50896;46.714;17.322;2024-01-30T14:14:58;12.10;;;6.82;;
64520;SDS011;50896;46.714;17.322;2024-01-30T14:17:25;9.80;;;6.07;;